sensor_id;sensor_type;location;lat;lon;timestamp;pressure;altitude;pressure_sealevel;temperature;humidity
32251;BME280;41295;48.518;9.206;2022-08-25T12:46:35;97016.72;;;26.31;45.13
32251;BME280;41295;48.518;9.206;2022-08-25T12:48:54;97015.94;;;26.64;44.45
32251;BME280;41295;48.518;9.206;2022-08-25T12:50:59;97010.75;;;27.21;43.74
32251;BME280;41295;48.518;9.206;2022-08-25T12:53:09;97018.66;;;27.54;43.30
32251;BME280;41295;48.518;9.206;2022-08-25T12:55:13;97019.34;;;27.96;42.81
32251;BME280;41295;48.518;9.206;2022-08-25T12:57:30;97016.81;;;28.58;40.34
32251;BME280;41295;48.518;9.206;2022-08-25T12:59:37;97014.66;;;29.16;38.57
32251;BME280;41295;48.518;9.206;2022-08-25T13:02:03;97016.66;;;29.68;38.17
32251;BME280;41295;48.518;9.206;2022-08-25T13:04:56;97014.50;;;30.30;37.81
32251;BME280;41295;48.518;9.206;2022-08-25T13:07:19;97008.91;;;30.97;36.16
32251;BME280;41295;48.518;9.206;2022-08-25T13:12:17;97015.34;;;32.16;34.03
32251;BME280;41295;48.518;9.206;2022-08-25T13:14:31;97019.81;;;32.58;33.48
32251;BME280;41295;48.518;9.206;2022-08-25T13:16:38;97021.06;;;32.83;33.26
32251;BME280;41295;48.518;9.206;2022-08-25T13:18:42;97012.34;;;32.74;33.52
32251;BME280;41295;48.518;9.206;2022-08-25T13:20:59;97009.00;;;32.45;34.42
32251;BME280;41295;48.518;9.206;2022-08-25T13:23:03;96997.56;;;32.43;34.80
32251;BME280;41295;48.518;9.206;2022-08-25T13:25:06;96997.22;;;32.66;34.36
32251;BME280;41295;48.518;9.206;2022-08-25T13:27:20;96999.47;;;33.03;34.25
32251;BME280;41295;48.518;9.206;2022-08-25T13:29:27;96997.97;;;33.48;33.84
32251;BME280;41295;48.518;9.206;2022-08-25T13:31:49;96981.91;;;34.06;32.59
32251;BME280;41295;48.518;9.206;2022-08-25T13:33:57;96993.78;;;34.44;30.93
32251;BME280;41295;48.518;9.206;2022-08-25T13:36:03;96990.00;;;34.52;31.49
32251;BME280;41295;48.518;9.206;2022-08-25T13:38:25;96989.22;;;34.05;31.87
32251;BME280;41295;48.518;9.206;2022-08-25T13:40:30;96994.97;;;33.63;32.30
32251;BME280;41295;48.518;9.206;2022-08-25T13:42:38;96989.47;;;33.24;33.37
32251;BME280;41295;48.518;9.206;2022-08-25T13:44:44;96992.19;;;32.97;33.71
32251;BME280;41295;48.518;9.206;2022-08-25T13:47:15;96991.41;;;32.62;34.41
32251;BME280;41295;48.518;9.206;2022-08-25T13:49:25;96979.50;;;32.29;35.45
32251;BME280;41295;48.518;9.206;2022-08-25T13:51:28;96985.47;;;32.11;35.15
32251;BME280;41295;48.518;9.206;2022-08-25T13:53:32;96983.59;;;32.05;35.42
32251;BME280;41295;48.518;9.206;2022-08-25T13:55:38;96978.47;;;32.37;35.27
32251;BME280;41295;48.518;9.206;2022-08-25T13:57:52;96983.69;;;32.93;34.01
32251;BME280;41295;48.518;9.206;2022-08-25T14:00:00;96982.97;;;33.52;32.70
32251;BME280;41295;48.518;9.206;2022-08-25T14:02:04;96970.50;;;34.04;31.96
32251;BME280;41295;48.518;9.206;2022-08-25T14:04:28;96982.13;;;34.43;30.89
32251;BME280;41295;48.518;9.206;2022-08-25T14:06:33;96980.97;;;34.58;30.86
32251;BME280;41295;48.518;9.206;2022-08-25T14:08:38;96974.59;;;34.13;30.71
32251;BME280;41295;48.518;9.206;2022-08-25T14:10:43;96974.81;;;33.72;31.30
32251;BME280;41295;48.518;9.206;2022-08-25T14:12:47;96966.94;;;33.71;31.96
32251;BME280;41295;48.518;9.206;2022-08-25T14:14:57;96966.00;;;33.91;31.54
32251;BME280;41295;48.518;9.206;2022-08-25T14:17:03;96971.88;;;34.20;30.55
32251;BME280;41295;48.518;9.206;2022-08-25T14:19:22;96967.28;;;34.53;30.33
32251;BME280;41295;48.518;9.206;2022-08-25T14:21:29;96966.72;;;34.76;29.82
32251;BME280;41295;48.518;9.206;2022-08-25T14:23:36;96964.38;;;35.06;28.99
32251;BME280;41295;48.518;9.206;2022-08-25T14:25:39;96964.47;;;35.36;28.38
32251;BME280;41295;48.518;9.206;2022-08-25T14:27:43;96962.50;;;35.44;28.43
32251;BME280;41295;48.518;9.206;2022-08-25T14:30:08;96962.81;;;35.35;29.41
32251;BME280;41295;48.518;9.206;2022-08-25T14:32:11;96957.81;;;34.95;28.92
32251;BME280;41295;48.518;9.206;2022-08-25T14:34:17;96964.84;;;34.77;29.38
32251;BME280;41295;48.518;9.206;2022-08-25T14:36:21;96960.84;;;34.54;29.23
32251;BME280;41295;48.518;9.206;2022-08-25T14:38:25;96963.41;;;34.42;29.95
32251;BME280;41295;48.518;9.206;2022-08-25T14:40:27;96956.72;;;34.12;30.02
32251;BME280;41295;48.518;9.206;2022-08-25T14:42:34;96950.09;;;33.69;31.29
32251;BME280;41295;48.518;9.206;2022-08-25T14:44:37;96952.88;;;33.42;31.54
32251;BME280;41295;48.518;9.206;2022-08-25T14:46:43;96957.69;;;33.26;31.78
32251;BME280;41295;48.518;9.206;2022-08-25T14:48:50;96952.53;;;33.18;32.34
32251;BME280;41295;48.518;9.206;2022-08-25T14:50:57;96946.28;;;33.10;31.64
32251;BME280;41295;48.518;9.206;2022-08-25T14:53:01;96948.56;;;33.20;31.04
32251;BME280;41295;48.518;9.206;2022-08-25T14:55:07;96950.19;;;33.35;30.46
32251;BME280;41295;48.518;9.206;2022-08-25T14:57:10;96943.94;;;33.34;31.96
32251;BME280;41295;48.518;9.206;2022-08-25T14:59:13;96939.78;;;33.39;30.72
32251;BME280;41295;48.518;9.206;2022-08-25T15:01:17;96940.25;;;33.29;30.73
32251;BME280;41295;48.518;9.206;2022-08-25T15:03:31;96934.84;;;33.22;30.86
32251;BME280;41295;48.518;9.206;2022-08-25T15:05:35;96929.03;;;33.18;31.37
32251;BME280;41295;48.518;9.206;2022-08-25T15:07:38;96932.75;;;33.38;31.57
32251;BME280;41295;48.518;9.206;2022-08-25T15:09:59;96939.66;;;33.20;31.10
32251;BME280;41295;48.518;9.206;2022-08-25T15:12:03;96928.44;;;33.16;31.09
32251;BME280;41295;48.518;9.206;2022-08-25T15:14:06;96923.44;;;33.13;31.71
32251;BME280;41295;48.518;9.206;2022-08-25T15:16:11;96929.06;;;33.11;32.64
32251;BME280;41295;48.518;9.206;2022-08-25T15:18:21;96931.31;;;33.08;31.42
32251;BME280;41295;48.518;9.206;2022-08-25T15:20:24;96929.91;;;33.05;31.62
32251;BME280;41295;48.518;9.206;2022-08-25T15:22:26;96935.94;;;33.14;30.96
32251;BME280;41295;48.518;9.206;2022-08-25T15:24:31;96928.84;;;33.13;31.35
32251;BME280;41295;48.518;9.206;2022-08-25T15:26:41;96927.63;;;33.16;30.47
32251;BME280;41295;48.518;9.206;2022-08-25T15:28:48;96932.16;;;33.15;30.98
32251;BME280;41295;48.518;9.206;2022-08-25T15:30:51;96931.34;;;33.15;31.05
32251;BME280;41295;48.518;9.206;2022-08-25T15:32:54;96932.59;;;33.05;30.24
32251;BME280;41295;48.518;9.206;2022-08-25T15:34:56;96925.75;;;32.96;30.84
32251;BME280;41295;48.518;9.206;2022-08-25T15:37:05;96925.38;;;32.72;31.19
32251;BME280;41295;48.518;9.206;2022-08-25T15:39:09;96928.88;;;32.45;31.46
32251;BME280;41295;48.518;9.206;2022-08-25T15:41:13;96926.78;;;32.20;32.10
32251;BME280;41295;48.518;9.206;2022-08-25T15:43:15;96923.47;;;32.11;32.89
32251;BME280;41295;48.518;9.206;2022-08-25T15:45:19;96923.25;;;32.06;32.64
32251;BME280;41295;48.518;9.206;2022-08-25T15:47:24;96919.13;;;32.10;32.33
32251;BME280;41295;48.518;9.206;2022-08-25T15:49:30;96925.25;;;31.90;32.34
32251;BME280;41295;48.518;9.206;2022-08-25T15:51:33;96920.22;;;31.74;33.51
32251;BME280;41295;48.518;9.206;2022-08-25T15:53:37;96915.19;;;31.50;33.80
32251;BME280;41295;48.518;9.206;2022-08-25T15:55:40;96917.53;;;31.25;33.60
32251;BME280;41295;48.518;9.206;2022-08-25T15:57:44;96922.81;;;31.04;34.15
32251;BME280;41295;48.518;9.206;2022-08-25T15:59:50;96914.44;;;30.85;34.29
32251;BME280;41295;48.518;9.206;2022-08-25T16:01:58;96912.84;;;30.69;35.08
32251;BME280;41295;48.518;9.206;2022-08-25T16:04:01;96914.88;;;30.67;35.44
32251;BME280;41295;48.518;9.206;2022-08-25T16:06:05;96905.78;;;30.68;35.07
32251;BME280;41295;48.518;9.206;2022-08-25T16:08:09;96908.00;;;30.87;34.30
32251;BME280;41295;48.518;9.206;2022-08-25T16:10:20;96908.72;;;30.73;35.34
32251;BME280;41295;48.518;9.206;2022-08-25T16:12:23;96908.72;;;30.73;35.54
32251;BME280;41295;48.518;9.206;2022-08-25T16:14:28;96913.28;;;30.73;35.85
32251;BME280;41295;48.518;9.206;2022-08-25T16:16:31;96908.94;;;30.79;35.96
32251;BME280;41295;48.518;9.206;2022-08-25T16:18:36;96914.63;;;30.84;36.08
32251;BME280;41295;48.518;9.206;2022-08-25T16:20:42;96907.75;;;30.81;35.93
32251;BME280;41295;48.518;9.206;2022-08-25T16:22:45;96907.06;;;30.72;36.26
32251;BME280;41295;48.518;9.206;2022-08-25T16:24:48;96907.81;;;30.66;36.44
32251;BME280;41295;48.518;9.206;2022-08-25T16:26:51;96902.81;;;30.56;36.17
32251;BME280;41295;48.518;9.206;2022-08-25T16:28:57;96901.09;;;30.48;36.45
32251;BME280;41295;48.518;9.206;2022-08-25T16:31:00;96901.69;;;30.44;36.75
32251;BME280;41295;48.518;9.206;2022-08-25T16:33:03;96904.63;;;30.49;36.56
32251;BME280;41295;48.518;9.206;2022-08-25T16:35:09;96893.84;;;30.49;36.68
32251;BME280;41295;48.518;9.206;2022-08-25T16:37:13;96892.66;;;30.52;36.85
32251;BME280;41295;48.518;9.206;2022-08-25T16:39:16;96898.03;;;30.52;36.86
32251;BME280;41295;48.518;9.206;2022-08-25T16:41:20;96894.28;;;30.53;37.12
32251;BME280;41295;48.518;9.206;2022-08-25T16:43:23;96891.41;;;30.54;36.98
32251;BME280;41295;48.518;9.206;2022-08-25T16:45:25;96885.19;;;30.54;36.86
32251;BME280;41295;48.518;9.206;2022-08-25T16:47:34;96888.91;;;30.53;37.67
32251;BME280;41295;48.518;9.206;2022-08-25T16:49:38;96881.06;;;30.51;37.61
32251;BME280;41295;48.518;9.206;2022-08-25T16:51:42;96885.78;;;30.49;37.63
32251;BME280;41295;48.518;9.206;2022-08-25T16:53:48;96884.13;;;30.48;37.50
32251;BME280;41295;48.518;9.206;2022-08-25T16:56:08;96884.06;;;30.41;37.23
32251;BME280;41295;48.518;9.206;2022-08-25T16:58:12;96883.66;;;30.37;36.82
32251;BME280;41295;48.518;9.206;2022-08-25T17:00:17;96881.56;;;30.40;36.93
32251;BME280;41295;48.518;9.206;2022-08-25T17:02:22;96885.75;;;30.42;36.39
32251;BME280;41295;48.518;9.206;2022-08-25T17:04:25;96880.25;;;30.29;37.03
32251;BME280;41295;48.518;9.206;2022-08-25T17:06:35;96885.09;;;30.18;37.51
32251;BME280;41295;48.518;9.206;2022-08-25T17:08:39;96878.56;;;30.06;37.82
32251;BME280;41295;48.518;9.206;2022-08-25T17:10:44;96881.78;;;29.94;37.82
32251;BME280;41295;48.518;9.206;2022-08-25T17:12:47;96878.75;;;29.82;38.28
32251;BME280;41295;48.518;9.206;2022-08-25T17:14:50;96881.78;;;29.72;37.92
32251;BME280;41295;48.518;9.206;2022-08-25T17:16:52;96874.84;;;29.63;38.62
32251;BME280;41295;48.518;9.206;2022-08-25T17:19:00;96878.66;;;29.53;38.98
32251;BME280;41295;48.518;9.206;2022-08-25T17:21:06;96883.47;;;29.43;39.57
32251;BME280;41295;48.518;9.206;2022-08-25T17:23:11;96887.13;;;29.35;39.54
32251;BME280;41295;48.518;9.206;2022-08-25T17:25:16;96884.50;;;29.27;39.66
32251;BME280;41295;48.518;9.206;2022-08-25T17:27:18;96889.16;;;29.18;39.88
32251;BME280;41295;48.518;9.206;2022-08-25T17:29:23;96884.94;;;29.09;40.51
32251;BME280;41295;48.518;9.206;2022-08-25T17:31:27;96891.28;;;29.08;40.27
32251;BME280;41295;48.518;9.206;2022-08-25T17:33:31;96876.47;;;28.97;40.40
32251;BME280;41295;48.518;9.206;2022-08-25T17:35:37;96889.13;;;28.88;41.06
32251;BME280;41295;48.518;9.206;2022-08-25T17:37:40;96891.91;;;28.79;41.77
32251;BME280;41295;48.518;9.206;2022-08-25T17:39:42;96886.00;;;28.69;42.29
32251;BME280;41295;48.518;9.206;2022-08-25T17:41:47;96889.75;;;28.60;42.37
32251;BME280;41295;48.518;9.206;2022-08-25T17:43:50;96888.81;;;28.52;42.35
32251;BME280;41295;48.518;9.206;2022-08-25T17:45:54;96888.91;;;28.44;43.11
32251;BME280;41295;48.518;9.206;2022-08-25T17:47:57;96887.97;;;28.37;43.15
32251;BME280;41295;48.518;9.206;2022-08-25T17:50:00;96892.16;;;28.31;43.49
32251;BME280;41295;48.518;9.206;2022-08-25T17:52:04;96893.72;;;28.25;43.26
32251;BME280;41295;48.518;9.206;2022-08-25T17:54:06;96887.41;;;28.18;43.58
32251;BME280;41295;48.518;9.206;2022-08-25T17:56:11;96890.81;;;28.12;43.23
32251;BME280;41295;48.518;9.206;2022-08-25T17:58:16;96899.22;;;28.08;43.61
32251;BME280;41295;48.518;9.206;2022-08-25T18:00:20;96894.56;;;28.02;44.23
32251;BME280;41295;48.518;9.206;2022-08-25T18:02:24;96906.03;;;27.96;44.39
32251;BME280;41295;48.518;9.206;2022-08-25T18:04:28;96899.69;;;27.89;44.58
32251;BME280;41295;48.518;9.206;2022-08-25T18:06:31;96896.91;;;27.82;44.90
32251;BME280;41295;48.518;9.206;2022-08-25T18:08:33;96905.63;;;27.76;45.22
32251;BME280;41295;48.518;9.206;2022-08-25T18:10:38;96906.47;;;27.68;45.53
32251;BME280;41295;48.518;9.206;2022-08-25T18:12:41;96905.34;;;27.62;45.51
32251;BME280;41295;48.518;9.206;2022-08-25T18:14:46;96904.03;;;27.58;45.51
32251;BME280;41295;48.518;9.206;2022-08-25T18:16:49;96903.56;;;27.54;45.52
32251;BME280;41295;48.518;9.206;2022-08-25T18:18:53;96910.59;;;27.47;46.56
32251;BME280;41295;48.518;9.206;2022-08-25T18:20:57;96914.00;;;27.41;46.86
32251;BME280;41295;48.518;9.206;2022-08-25T18:23:00;96912.19;;;27.33;46.72
32251;BME280;41295;48.518;9.206;2022-08-25T18:25:05;96910.22;;;27.26;46.59
32251;BME280;41295;48.518;9.206;2022-08-25T18:27:10;96919.09;;;27.19;46.85
32251;BME280;41295;48.518;9.206;2022-08-25T18:29:14;96910.09;;;27.11;46.88
32251;BME280;41295;48.518;9.206;2022-08-25T18:31:19;96914.09;;;27.07;47.03
32251;BME280;41295;48.518;9.206;2022-08-25T18:33:22;96914.78;;;27.01;47.47
32251;BME280;41295;48.518;9.206;2022-08-25T18:35:24;96920.63;;;26.96;47.11
32251;BME280;41295;48.518;9.206;2022-08-25T18:37:27;96917.31;;;26.94;47.44
32251;BME280;41295;48.518;9.206;2022-08-25T18:39:48;96916.81;;;26.90;47.57
32251;BME280;41295;48.518;9.206;2022-08-25T18:42:09;96917.84;;;26.81;47.11
32251;BME280;41295;48.518;9.206;2022-08-25T18:44:14;96921.38;;;26.65;46.86
32251;BME280;41295;48.518;9.206;2022-08-25T18:46:19;96923.19;;;26.64;47.01
32251;BME280;41295;48.518;9.206;2022-08-25T18:48:23;96926.03;;;26.63;46.77
32251;BME280;41295;48.518;9.206;2022-08-25T18:50:33;96929.22;;;26.58;47.17
32251;BME280;41295;48.518;9.206;2022-08-25T18:52:36;96924.03;;;26.48;47.81
32251;BME280;41295;48.518;9.206;2022-08-25T18:54:39;96923.41;;;26.46;48.17
32251;BME280;41295;48.518;9.206;2022-08-25T18:56:42;96921.38;;;26.40;48.53
32251;BME280;41295;48.518;9.206;2022-08-25T18:58:45;96924.34;;;26.28;48.43
32251;BME280;41295;48.518;9.206;2022-08-25T19:00:48;96925.53;;;26.17;48.55
32251;BME280;41295;48.518;9.206;2022-08-25T19:02:53;96926.34;;;26.10;48.66
32251;BME280;41295;48.518;9.206;2022-08-25T19:04:57;96929.53;;;26.05;49.61
32251;BME280;41295;48.518;9.206;2022-08-25T19:07:08;96928.88;;;26.11;49.43
32251;BME280;41295;48.518;9.206;2022-08-25T19:09:12;96929.53;;;26.05;49.09
32251;BME280;41295;48.518;9.206;2022-08-25T19:11:16;96933.19;;;26.04;49.18
32251;BME280;41295;48.518;9.206;2022-08-25T19:13:22;96937.53;;;25.97;49.14
32251;BME280;41295;48.518;9.206;2022-08-25T19:15:25;96935.00;;;25.87;49.88
32251;BME280;41295;48.518;9.206;2022-08-25T19:17:29;96938.47;;;25.79;50.00
32251;BME280;41295;48.518;9.206;2022-08-25T19:19:39;96934.97;;;25.78;49.96
32251;BME280;41295;48.518;9.206;2022-08-25T19:21:42;96944.50;;;25.73;50.72
32251;BME280;41295;48.518;9.206;2022-08-25T19:23:48;96940.94;;;25.64;50.10
32251;BME280;41295;48.518;9.206;2022-08-25T19:25:52;96936.91;;;25.59;50.95
32251;BME280;41295;48.518;9.206;2022-08-25T19:27:57;96935.53;;;25.55;51.17
32251;BME280;41295;48.518;9.206;2022-08-25T19:30:03;96942.06;;;25.53;51.35
32251;BME280;41295;48.518;9.206;2022-08-25T19:32:06;96936.53;;;25.46;51.52
32251;BME280;41295;48.518;9.206;2022-08-25T19:34:16;96941.50;;;25.41;51.42
32251;BME280;41295;48.518;9.206;2022-08-25T19:36:24;96939.47;;;25.34;51.72
32251;BME280;41295;48.518;9.206;2022-08-25T19:38:28;96937.31;;;25.30;51.72
32251;BME280;41295;48.518;9.206;2022-08-25T19:40:35;96933.28;;;25.26;51.32
32251;BME280;41295;48.518;9.206;2022-08-25T19:42:39;96933.59;;;25.22;51.48
32251;BME280;41295;48.518;9.206;2022-08-25T19:44:41;96940.25;;;25.18;51.87
32251;BME280;41295;48.518;9.206;2022-08-25T19:46:44;96945.06;;;25.15;51.94
32251;BME280;41295;48.518;9.206;2022-08-25T19:48:51;96938.34;;;25.10;52.37
32251;BME280;41295;48.518;9.206;2022-08-25T19:50:53;96940.66;;;25.05;52.58
32251;BME280;41295;48.518;9.206;2022-08-25T19:52:58;96939.50;;;25.00;52.84
32251;BME280;41295;48.518;9.206;2022-08-25T19:55:02;96942.78;;;24.93;53.11
32251;BME280;41295;48.518;9.206;2022-08-25T19:57:06;96940.22;;;24.92;52.86
32251;BME280;41295;48.518;9.206;2022-08-25T19:59:12;96942.63;;;24.95;53.20
32251;BME280;41295;48.518;9.206;2022-08-25T20:01:18;96943.78;;;24.92;52.98
32251;BME280;41295;48.518;9.206;2022-08-25T20:03:21;96943.69;;;24.84;53.03
32251;BME280;41295;48.518;9.206;2022-08-25T20:05:23;96937.66;;;24.82;52.97
32251;BME280;41295;48.518;9.206;2022-08-25T20:07:28;96947.31;;;24.74;53.34
32251;BME280;41295;48.518;9.206;2022-08-25T20:09:32;96946.94;;;24.69;53.30
32251;BME280;41295;48.518;9.206;2022-08-25T20:11:40;96950.22;;;24.63;53.50
32251;BME280;41295;48.518;9.206;2022-08-25T20:13:43;96949.53;;;24.61;53.45
32251;BME280;41295;48.518;9.206;2022-08-25T20:15:49;96945.81;;;24.54;53.39
32251;BME280;41295;48.518;9.206;2022-08-25T20:17:58;96951.75;;;24.47;53.61
32251;BME280;41295;48.518;9.206;2022-08-25T20:20:05;96955.56;;;24.45;53.79
32251;BME280;41295;48.518;9.206;2022-08-25T20:22:11;96953.69;;;24.37;54.29
32251;BME280;41295;48.518;9.206;2022-08-25T20:24:18;96960.44;;;24.31;54.54
32251;BME280;41295;48.518;9.206;2022-08-25T20:26:40;96955.44;;;24.28;54.58
32251;BME280;41295;48.518;9.206;2022-08-25T20:28:43;96957.56;;;24.24;54.43
32251;BME280;41295;48.518;9.206;2022-08-25T20:30:46;96962.38;;;24.21;54.57
32251;BME280;41295;48.518;9.206;2022-08-25T20:32:49;96962.38;;;24.21;54.43
32251;BME280;41295;48.518;9.206;2022-08-25T20:34:52;96956.19;;;24.20;54.45
32251;BME280;41295;48.518;9.206;2022-08-25T20:36:56;96963.78;;;24.15;54.30
32251;BME280;41295;48.518;9.206;2022-08-25T20:38:59;96964.38;;;24.09;54.39
32251;BME280;41295;48.518;9.206;2022-08-25T20:41:01;96960.34;;;24.05;54.54
32251;BME280;41295;48.518;9.206;2022-08-25T20:43:06;96960.94;;;23.98;54.45
32251;BME280;41295;48.518;9.206;2022-08-25T20:45:13;96959.72;;;23.93;54.62
32251;BME280;41295;48.518;9.206;2022-08-25T20:47:17;96960.03;;;23.89;54.93
32251;BME280;41295;48.518;9.206;2022-08-25T20:49:21;96965.41;;;23.79;55.05
32251;BME280;41295;48.518;9.206;2022-08-25T20:51:27;96969.50;;;23.74;55.27
32251;BME280;41295;48.518;9.206;2022-08-25T20:53:31;96967.44;;;23.67;55.46
32251;BME280;41295;48.518;9.206;2022-08-25T20:55:35;96962.56;;;23.63;55.31
32251;BME280;41295;48.518;9.206;2022-08-25T20:57:42;96967.34;;;23.59;55.74
32251;BME280;41295;48.518;9.206;2022-08-25T20:59:47;96965.84;;;23.57;56.08
32251;BME280;41295;48.518;9.206;2022-08-25T21:01:49;96974.47;;;23.59;56.02
32251;BME280;41295;48.518;9.206;2022-08-25T21:03:53;96971.16;;;23.57;55.95
32251;BME280;41295;48.518;9.206;2022-08-25T21:05:55;96974.25;;;23.52;56.04
32251;BME280;41295;48.518;9.206;2022-08-25T21:07:58;96974.69;;;23.47;56.33
32251;BME280;41295;48.518;9.206;2022-08-25T21:10:04;96969.47;;;23.55;56.10
32251;BME280;41295;48.518;9.206;2022-08-25T21:12:11;96980.25;;;23.54;56.05
32251;BME280;41295;48.518;9.206;2022-08-25T21:14:15;96974.00;;;23.45;56.03
32251;BME280;41295;48.518;9.206;2022-08-25T21:16:19;96973.56;;;23.40;56.25
32251;BME280;41295;48.518;9.206;2022-08-25T21:18:24;96980.47;;;23.33;56.13
32251;BME280;41295;48.518;9.206;2022-08-25T21:20:33;96978.78;;;23.31;56.11
32251;BME280;41295;48.518;9.206;2022-08-25T21:22:36;96979.19;;;23.37;56.12
32251;BME280;41295;48.518;9.206;2022-08-25T21:24:39;96983.56;;;23.28;56.33
32251;BME280;41295;48.518;9.206;2022-08-25T21:26:46;96975.13;;;23.33;56.31
32251;BME280;41295;48.518;9.206;2022-08-25T21:28:51;96977.25;;;23.29;56.67
32251;BME280;41295;48.518;9.206;2022-08-25T21:30:53;96977.16;;;23.21;56.44
32251;BME280;41295;48.518;9.206;2022-08-25T21:32:58;96979.13;;;23.09;56.64
32251;BME280;41295;48.518;9.206;2022-08-25T21:35:01;96978.88;;;23.02;56.91
32251;BME280;41295;48.518;9.206;2022-08-25T21:37:08;96975.81;;;22.97;56.87
32251;BME280;41295;48.518;9.206;2022-08-25T21:39:12;96970.94;;;22.92;57.61
32251;BME280;41295;48.518;9.206;2022-08-25T21:41:17;96967.44;;;22.91;57.51
32251;BME280;41295;48.518;9.206;2022-08-25T21:43:21;96978.34;;;22.88;57.44
32251;BME280;41295;48.518;9.206;2022-08-25T21:45:23;96976.25;;;22.82;57.84
32251;BME280;41295;48.518;9.206;2022-08-25T21:47:33;96973.75;;;22.80;58.08
32251;BME280;41295;48.518;9.206;2022-08-25T21:49:43;96979.34;;;22.77;57.99
32251;BME280;41295;48.518;9.206;2022-08-25T21:51:46;96980.34;;;22.76;57.99
32251;BME280;41295;48.518;9.206;2022-08-25T21:54:02;96986.63;;;22.75;57.97
32251;BME280;41295;48.518;9.206;2022-08-25T21:56:13;96972.94;;;22.70;58.10
32251;BME280;41295;48.518;9.206;2022-08-25T21:58:17;96978.25;;;22.70;58.19
32251;BME280;41295;48.518;9.206;2022-08-25T22:00:23;96976.09;;;22.83;58.16
32251;BME280;41295;48.518;9.206;2022-08-25T22:02:26;96979.16;;;22.99;57.93
32251;BME280;41295;48.518;9.206;2022-08-25T22:04:29;96974.41;;;23.02;56.94
32251;BME280;41295;48.518;9.206;2022-08-25T22:06:34;96969.41;;;23.27;55.87
32251;BME280;41295;48.518;9.206;2022-08-25T22:08:38;96969.59;;;23.16;56.17
32251;BME280;41295;48.518;9.206;2022-08-25T22:10:42;96968.28;;;22.92;57.04
32251;BME280;41295;48.518;9.206;2022-08-25T22:12:46;96969.78;;;22.94;56.57
32251;BME280;41295;48.518;9.206;2022-08-25T22:14:48;96972.63;;;22.83;56.96
32251;BME280;41295;48.518;9.206;2022-08-25T22:16:51;96966.22;;;22.66;57.94
32251;BME280;41295;48.518;9.206;2022-08-25T22:18:54;96962.69;;;22.55;58.04
32251;BME280;41295;48.518;9.206;2022-08-25T22:20:58;96963.56;;;22.56;58.53
32251;BME280;41295;48.518;9.206;2022-08-25T22:23:08;96970.38;;;22.58;58.01
32251;BME280;41295;48.518;9.206;2022-08-25T22:25:20;96964.41;;;22.56;58.08
32251;BME280;41295;48.518;9.206;2022-08-25T22:27:25;96965.94;;;22.49;58.18
32251;BME280;41295;48.518;9.206;2022-08-25T22:29:29;96960.06;;;22.45;58.49
32251;BME280;41295;48.518;9.206;2022-08-25T22:31:33;96960.22;;;22.44;58.35
32251;BME280;41295;48.518;9.206;2022-08-25T22:33:38;96970.44;;;22.39;58.69
32251;BME280;41295;48.518;9.206;2022-08-25T22:35:42;96958.81;;;22.40;58.40
32251;BME280;41295;48.518;9.206;2022-08-25T22:37:44;96967.22;;;22.35;58.46
32251;BME280;41295;48.518;9.206;2022-08-25T22:39:49;96962.00;;;22.33;58.75
32251;BME280;41295;48.518;9.206;2022-08-25T22:41:52;96965.94;;;22.29;59.10
32251;BME280;41295;48.518;9.206;2022-08-25T22:43:56;96967.78;;;22.39;58.98
32251;BME280;41295;48.518;9.206;2022-08-25T22:46:00;96957.56;;;22.44;58.77
32251;BME280;41295;48.518;9.206;2022-08-25T22:48:04;96962.28;;;22.50;58.71
32251;BME280;41295;48.518;9.206;2022-08-25T22:50:08;96961.19;;;22.53;58.63
32251;BME280;41295;48.518;9.206;2022-08-25T22:52:11;96962.69;;;22.55;58.40
32251;BME280;41295;48.518;9.206;2022-08-25T22:54:13;96966.34;;;22.64;57.81
32251;BME280;41295;48.518;9.206;2022-08-25T22:56:20;96964.94;;;22.50;58.40
32251;BME280;41295;48.518;9.206;2022-08-25T22:58:30;96963.69;;;22.44;58.54
32251;BME280;41295;48.518;9.206;2022-08-25T23:00:37;96965.94;;;22.39;58.99
32251;BME280;41295;48.518;9.206;2022-08-25T23:02:40;96963.97;;;22.41;59.08
32251;BME280;41295;48.518;9.206;2022-08-25T23:04:43;96954.63;;;22.47;58.89
32251;BME280;41295;48.518;9.206;2022-08-25T23:06:46;96947.06;;;22.52;58.76
32251;BME280;41295;48.518;9.206;2022-08-25T23:08:50;96958.25;;;22.56;58.77
32251;BME280;41295;48.518;9.206;2022-08-25T23:10:54;96950.97;;;22.58;58.52
32251;BME280;41295;48.518;9.206;2022-08-25T23:12:59;96954.44;;;22.58;58.49
32251;BME280;41295;48.518;9.206;2022-08-25T23:15:11;96953.63;;;22.58;58.59
32251;BME280;41295;48.518;9.206;2022-08-25T23:17:14;96950.13;;;22.57;58.57
32251;BME280;41295;48.518;9.206;2022-08-25T23:19:17;96946.47;;;22.58;58.50
32251;BME280;41295;48.518;9.206;2022-08-25T23:21:20;96949.00;;;22.60;58.47
32251;BME280;41295;48.518;9.206;2022-08-25T23:23:42;96954.19;;;22.71;57.64
32251;BME280;41295;48.518;9.206;2022-08-25T23:25:45;96955.16;;;22.61;57.30
32251;BME280;41295;48.518;9.206;2022-08-25T23:27:48;96950.00;;;22.49;57.87
32251;BME280;41295;48.518;9.206;2022-08-25T23:29:53;96953.09;;;22.34;58.52
32251;BME280;41295;48.518;9.206;2022-08-25T23:31:57;96950.69;;;22.21;58.89
32251;BME280;41295;48.518;9.206;2022-08-25T23:34:00;96951.69;;;22.01;58.83
32251;BME280;41295;48.518;9.206;2022-08-25T23:36:06;96946.09;;;21.94;59.65
32251;BME280;41295;48.518;9.206;2022-08-25T23:38:11;96946.34;;;21.91;59.31
32251;BME280;41295;48.518;9.206;2022-08-25T23:40:14;96949.00;;;21.81;59.63
32251;BME280;41295;48.518;9.206;2022-08-25T23:42:19;96945.84;;;21.66;60.47
32251;BME280;41295;48.518;9.206;2022-08-25T23:44:22;96947.91;;;21.52;61.03
32251;BME280;41295;48.518;9.206;2022-08-25T23:46:27;96947.50;;;21.47;61.38
32251;BME280;41295;48.518;9.206;2022-08-25T23:48:31;96942.72;;;21.41;61.72
32251;BME280;41295;48.518;9.206;2022-08-25T23:50:38;96939.06;;;21.32;62.30
32251;BME280;41295;48.518;9.206;2022-08-25T23:52:41;96940.88;;;21.31;62.15
32251;BME280;41295;48.518;9.206;2022-08-25T23:54:44;96935.41;;;21.23;62.23